sensor_id;sensor_type;location;lat;lon;timestamp;temperature;humidity
6948;DHT22;3513;47.664;9.162;2024-01-15T00:00:47;2.40;99.80
6948;DHT22;3513;47.664;9.162;2024-01-15T00:03:13;2.40;99.80
6948;DHT22;3513;47.664;9.162;2024-01-15T00:05:39;2.40;99.80
6948;DHT22;3513;47.664;9.162;2024-01-15T00:08:04;2.40;99.90
6948;DHT22;3513;47.664;9.162;2024-01-15T00:10:30;2.40;99.90
6948;DHT22;3513;47.664;9.162;2024-01-15T00:12:56;2.40;99.90
6948;DHT22;3513;47.664;9.162;2024-01-15T00:15:21;2.30;99.90
6948;DHT22;3513;47.664;9.162;2024-01-15T00:17:47;2.40;99.90
6948;DHT22;3513;47.664;9.162;2024-01-15T00:20:13;2.50;99.90
6948;DHT22;3513;47.664;9.162;2024-01-15T00:22:39;2.50;99.90
6948;DHT22;3513;47.664;9.162;2024-01-15T00:25:05;2.50;99.90
6948;DHT22;3513;47.664;9.162;2024-01-15T00:27:30;2.50;99.90
6948;DHT22;3513;47.664;9.162;2024-01-15T00:29:56;2.40;99.90
6948;DHT22;3513;47.664;9.162;2024-01-15T00:32:21;2.40;99.90
6948;DHT22;3513;47.664;9.162;2024-01-15T00:34:47;2.40;99.90
6948;DHT22;3513;47.664;9.162;2024-01-15T00:37:12;2.30;99.90
6948;DHT22;3513;47.664;9.162;2024-01-15T00:39:38;2.40;99.90
6948;DHT22;3513;47.664;9.162;2024-01-15T00:42:04;2.30;99.90
6948;DHT22;3513;47.664;9.162;2024-01-15T00:44:30;2.30;99.90
6948;DHT22;3513;47.664;9.162;2024-01-15T00:46:55;2.30;99.90
6948;DHT22;3513;47.664;9.162;2024-01-15T00:49:21;2.20;99.90
6948;DHT22;3513;47.664;9.162;2024-01-15T00:51:47;2.20;99.90
6948;DHT22;3513;47.664;9.162;2024-01-15T00:54:13;2.30;99.90
6948;DHT22;3513;47.664;9.162;2024-01-15T00:56:38;2.30;99.70
6948;DHT22;3513;47.664;9.162;2024-01-15T00:59:04;2.30;99.60
6948;DHT22;3513;47.664;9.162;2024-01-15T01:01:29;2.30;99.00
6948;DHT22;3513;47.664;9.162;2024-01-15T01:03:55;2.30;98.80
6948;DHT22;3513;47.664;9.162;2024-01-15T01:06:21;2.40;98.80
6948;DHT22;3513;47.664;9.162;2024-01-15T01:08:46;2.30;98.60
6948;DHT22;3513;47.664;9.162;2024-01-15T01:11:15;2.40;98.50
6948;DHT22;3513;47.664;9.162;2024-01-15T01:13:41;2.40;98.50
6948;DHT22;3513;47.664;9.162;2024-01-15T01:16:07;2.30;98.50
6948;DHT22;3513;47.664;9.162;2024-01-15T01:18:32;2.20;98.50
6948;DHT22;3513;47.664;9.162;2024-01-15T01:20:58;2.30;98.70
6948;DHT22;3513;47.664;9.162;2024-01-15T01:23:23;2.30;98.30
6948;DHT22;3513;47.664;9.162;2024-01-15T01:25:49;2.30;98.10
6948;DHT22;3513;47.664;9.162;2024-01-15T01:28:14;2.30;98.20
6948;DHT22;3513;47.664;9.162;2024-01-15T01:30:40;2.30;98.00
6948;DHT22;3513;47.664;9.162;2024-01-15T01:33:05;2.30;98.00
6948;DHT22;3513;47.664;9.162;2024-01-15T01:35:31;2.30;98.20
6948;DHT22;3513;47.664;9.162;2024-01-15T01:37:57;2.30;98.00
6948;DHT22;3513;47.664;9.162;2024-01-15T01:40:22;2.30;97.90
6948;DHT22;3513;47.664;9.162;2024-01-15T01:42:48;2.30;97.80
6948;DHT22;3513;47.664;9.162;2024-01-15T01:45:14;2.30;97.70
6948;DHT22;3513;47.664;9.162;2024-01-15T01:47:40;2.30;97.50
6948;DHT22;3513;47.664;9.162;2024-01-15T01:50:06;2.30;97.30
6948;DHT22;3513;47.664;9.162;2024-01-15T01:52:32;2.30;97.20
6948;DHT22;3513;47.664;9.162;2024-01-15T01:54:59;2.30;97.00
6948;DHT22;3513;47.664;9.162;2024-01-15T01:57:25;2.30;96.80
6948;DHT22;3513;47.664;9.162;2024-01-15T01:59:51;2.30;96.60
6948;DHT22;3513;47.664;9.162;2024-01-15T02:02:17;2.40;96.40
6948;DHT22;3513;47.664;9.162;2024-01-15T02:04:43;2.40;96.20
6948;DHT22;3513;47.664;9.162;2024-01-15T02:07:09;2.40;96.10
6948;DHT22;3513;47.664;9.162;2024-01-15T02:09:35;2.40;95.90
6948;DHT22;3513;47.664;9.162;2024-01-15T02:12:01;2.30;95.90
6948;DHT22;3513;47.664;9.162;2024-01-15T02:14:27;2.30;95.90
6948;DHT22;3513;47.664;9.162;2024-01-15T02:16:52;2.30;96.00
6948;DHT22;3513;47.664;9.162;2024-01-15T02:19:18;2.30;96.30
6948;DHT22;3513;47.664;9.162;2024-01-15T02:21:44;2.20;96.50
6948;DHT22;3513;47.664;9.162;2024-01-15T02:24:10;2.00;96.80
6948;DHT22;3513;47.664;9.162;2024-01-15T02:26:37;1.90;97.60
6948;DHT22;3513;47.664;9.162;2024-01-15T02:29:04;1.80;97.40
6948;DHT22;3513;47.664;9.162;2024-01-15T02:31:31;1.70;97.70
6948;DHT22;3513;47.664;9.162;2024-01-15T02:33:57;1.70;97.70
6948;DHT22;3513;47.664;9.162;2024-01-15T02:36:23;1.80;97.70
6948;DHT22;3513;47.664;9.162;2024-01-15T02:38:48;1.70;97.80
6948;DHT22;3513;47.664;9.162;2024-01-15T02:41:14;1.60;97.80
6948;DHT22;3513;47.664;9.162;2024-01-15T02:43:40;1.60;98.20
6948;DHT22;3513;47.664;9.162;2024-01-15T02:46:06;1.70;98.00
6948;DHT22;3513;47.664;9.162;2024-01-15T02:48:32;1.60;97.70
6948;DHT22;3513;47.664;9.162;2024-01-15T02:51:00;1.60;97.80
6948;DHT22;3513;47.664;9.162;2024-01-15T02:53:26;1.70;97.40
6948;DHT22;3513;47.664;9.162;2024-01-15T02:55:51;1.60;97.30
6948;DHT22;3513;47.664;9.162;2024-01-15T02:58:17;1.60;97.10
6948;DHT22;3513;47.664;9.162;2024-01-15T03:00:42;1.60;96.60
6948;DHT22;3513;47.664;9.162;2024-01-15T03:03:09;1.50;96.40
6948;DHT22;3513;47.664;9.162;2024-01-15T03:05:34;1.40;96.30
6948;DHT22;3513;47.664;9.162;2024-01-15T03:08:00;1.20;95.80
6948;DHT22;3513;47.664;9.162;2024-01-15T03:10:25;1.10;95.80
6948;DHT22;3513;47.664;9.162;2024-01-15T03:12:51;1.10;95.90
6948;DHT22;3513;47.664;9.162;2024-01-15T03:15:16;1.00;95.90
6948;DHT22;3513;47.664;9.162;2024-01-15T03:17:43;1.00;96.20
6948;DHT22;3513;47.664;9.162;2024-01-15T03:20:09;1.00;96.10
6948;DHT22;3513;47.664;9.162;2024-01-15T03:22:35;0.90;95.80
6948;DHT22;3513;47.664;9.162;2024-01-15T03:25:00;0.90;95.90
6948;DHT22;3513;47.664;9.162;2024-01-15T03:27:26;0.80;95.90
6948;DHT22;3513;47.664;9.162;2024-01-15T03:29:52;0.80;96.40
6948;DHT22;3513;47.664;9.162;2024-01-15T03:32:17;0.90;96.90
6948;DHT22;3513;47.664;9.162;2024-01-15T03:34:43;1.00;96.90
6948;DHT22;3513;47.664;9.162;2024-01-15T03:37:08;1.10;96.70
6948;DHT22;3513;47.664;9.162;2024-01-15T03:39:34;1.00;96.70
6948;DHT22;3513;47.664;9.162;2024-01-15T03:41:59;1.00;96.60
6948;DHT22;3513;47.664;9.162;2024-01-15T03:44:25;1.10;96.30
6948;DHT22;3513;47.664;9.162;2024-01-15T03:46:51;1.20;96.10
6948;DHT22;3513;47.664;9.162;2024-01-15T03:49:16;1.30;96.20
6948;DHT22;3513;47.664;9.162;2024-01-15T03:51:42;1.30;95.80
6948;DHT22;3513;47.664;9.162;2024-01-15T03:54:07;1.20;95.70
6948;DHT22;3513;47.664;9.162;2024-01-15T03:56:33;1.10;95.50
6948;DHT22;3513;47.664;9.162;2024-01-15T03:58:58;1.20;95.70
6948;DHT22;3513;47.664;9.162;2024-01-15T04:01:24;1.20;95.20
6948;DHT22;3513;47.664;9.162;2024-01-15T04:03:49;1.10;95.50
6948;DHT22;3513;47.664;9.162;2024-01-15T04:06:15;1.30;95.40
6948;DHT22;3513;47.664;9.162;2024-01-15T04:08:40;1.10;95.20
6948;DHT22;3513;47.664;9.162;2024-01-15T04:11:06;1.10;95.60
6948;DHT22;3513;47.664;9.162;2024-01-15T04:13:35;1.10;95.50
6948;DHT22;3513;47.664;9.162;2024-01-15T04:16:00;1.10;95.20
6948;DHT22;3513;47.664;9.162;2024-01-15T04:18:26;1.10;95.20
6948;DHT22;3513;47.664;9.162;2024-01-15T04:20:51;1.10;94.70
6948;DHT22;3513;47.664;9.162;2024-01-15T04:23:17;1.20;95.10
6948;DHT22;3513;47.664;9.162;2024-01-15T04:25:43;1.20;94.60
6948;DHT22;3513;47.664;9.162;2024-01-15T04:28:09;1.40;94.60
6948;DHT22;3513;47.664;9.162;2024-01-15T04:30:35;1.30;94.60
6948;DHT22;3513;47.664;9.162;2024-01-15T04:33:01;1.60;94.20
6948;DHT22;3513;47.664;9.162;2024-01-15T04:35:26;1.60;94.50
6948;DHT22;3513;47.664;9.162;2024-01-15T04:37:52;1.60;94.00
6948;DHT22;3513;47.664;9.162;2024-01-15T04:40:17;1.60;93.90
6948;DHT22;3513;47.664;9.162;2024-01-15T04:42:43;1.70;93.40
6948;DHT22;3513;47.664;9.162;2024-01-15T04:45:11;1.60;93.00
6948;DHT22;3513;47.664;9.162;2024-01-15T04:47:37;1.60;92.70
6948;DHT22;3513;47.664;9.162;2024-01-15T04:50:04;1.50;92.20
6948;DHT22;3513;47.664;9.162;2024-01-15T04:52:29;1.50;92.10
6948;DHT22;3513;47.664;9.162;2024-01-15T04:54:55;1.50;92.10
6948;DHT22;3513;47.664;9.162;2024-01-15T04:57:20;1.50;92.10
6948;DHT22;3513;47.664;9.162;2024-01-15T04:59:46;1.40;92.10
6948;DHT22;3513;47.664;9.162;2024-01-15T05:02:11;1.40;92.10
6948;DHT22;3513;47.664;9.162;2024-01-15T05:04:37;1.30;92.30
6948;DHT22;3513;47.664;9.162;2024-01-15T05:07:03;1.30;92.30
6948;DHT22;3513;47.664;9.162;2024-01-15T05:09:28;1.30;92.30
6948;DHT22;3513;47.664;9.162;2024-01-15T05:11:54;1.30;92.20
6948;DHT22;3513;47.664;9.162;2024-01-15T05:14:19;1.20;92.00
6948;DHT22;3513;47.664;9.162;2024-01-15T05:16:49;1.20;92.10
6948;DHT22;3513;47.664;9.162;2024-01-15T05:19:14;1.20;92.20
6948;DHT22;3513;47.664;9.162;2024-01-15T05:21:40;1.20;92.10
6948;DHT22;3513;47.664;9.162;2024-01-15T05:24:06;1.20;92.30
6948;DHT22;3513;47.664;9.162;2024-01-15T05:26:32;1.20;92.40
6948;DHT22;3513;47.664;9.162;2024-01-15T05:28:58;1.10;92.50
6948;DHT22;3513;47.664;9.162;2024-01-15T05:31:23;1.20;92.30
6948;DHT22;3513;47.664;9.162;2024-01-15T05:33:49;1.20;92.50
6948;DHT22;3513;47.664;9.162;2024-01-15T05:36:15;1.20;92.30
6948;DHT22;3513;47.664;9.162;2024-01-15T05:38:40;1.10;92.30
6948;DHT22;3513;47.664;9.162;2024-01-15T05:41:06;1.20;92.20
6948;DHT22;3513;47.664;9.162;2024-01-15T05:43:31;1.20;92.20
6948;DHT22;3513;47.664;9.162;2024-01-15T05:45:57;1.20;92.60
6948;DHT22;3513;47.664;9.162;2024-01-15T05:48:23;1.10;92.60
6948;DHT22;3513;47.664;9.162;2024-01-15T05:50:49;1.10;92.90
6948;DHT22;3513;47.664;9.162;2024-01-15T05:53:14;1.10;93.00
6948;DHT22;3513;47.664;9.162;2024-01-15T05:55:40;1.20;92.90
6948;DHT22;3513;47.664;9.162;2024-01-15T05:58:05;1.20;93.20
6948;DHT22;3513;47.664;9.162;2024-01-15T06:00:31;1.20;93.10
6948;DHT22;3513;47.664;9.162;2024-01-15T06:02:58;1.30;93.30
6948;DHT22;3513;47.664;9.162;2024-01-15T06:05:24;1.10;93.40
6948;DHT22;3513;47.664;9.162;2024-01-15T06:07:50;1.10;93.70
6948;DHT22;3513;47.664;9.162;2024-01-15T06:10:16;1.10;93.70
6948;DHT22;3513;47.664;9.162;2024-01-15T06:12:44;1.10;93.80
6948;DHT22;3513;47.664;9.162;2024-01-15T06:15:10;1.10;93.90
6948;DHT22;3513;47.664;9.162;2024-01-15T06:17:35;1.10;94.00
6948;DHT22;3513;47.664;9.162;2024-01-15T06:20:01;1.10;94.20
6948;DHT22;3513;47.664;9.162;2024-01-15T06:22:27;1.10;94.10
6948;DHT22;3513;47.664;9.162;2024-01-15T06:24:53;1.10;94.00
6948;DHT22;3513;47.664;9.162;2024-01-15T06:27:18;1.10;94.00
6948;DHT22;3513;47.664;9.162;2024-01-15T06:29:47;1.10;93.90
6948;DHT22;3513;47.664;9.162;2024-01-15T06:32:13;1.00;94.00
6948;DHT22;3513;47.664;9.162;2024-01-15T06:34:38;1.00;94.10
6948;DHT22;3513;47.664;9.162;2024-01-15T06:37:04;1.00;94.60
6948;DHT22;3513;47.664;9.162;2024-01-15T06:39:30;1.00;94.20
6948;DHT22;3513;47.664;9.162;2024-01-15T06:41:55;1.00;94.10
6948;DHT22;3513;47.664;9.162;2024-01-15T06:44:21;1.00;94.00
6948;DHT22;3513;47.664;9.162;2024-01-15T06:46:47;1.00;93.90
6948;DHT22;3513;47.664;9.162;2024-01-15T06:49:13;1.00;93.90
6948;DHT22;3513;47.664;9.162;2024-01-15T06:51:39;1.00;94.30
6948;DHT22;3513;47.664;9.162;2024-01-15T06:54:04;0.90;94.60
6948;DHT22;3513;47.664;9.162;2024-01-15T06:56:31;0.90;94.40
6948;DHT22;3513;47.664;9.162;2024-01-15T06:58:57;0.90;94.60
6948;DHT22;3513;47.664;9.162;2024-01-15T07:01:23;0.80;94.70
6948;DHT22;3513;47.664;9.162;2024-01-15T07:03:48;0.80;94.70
6948;DHT22;3513;47.664;9.162;2024-01-15T07:06:14;0.80;94.50
6948;DHT22;3513;47.664;9.162;2024-01-15T07:08:40;0.80;94.80
6948;DHT22;3513;47.664;9.162;2024-01-15T07:11:06;0.80;95.00
6948;DHT22;3513;47.664;9.162;2024-01-15T07:13:33;0.80;94.80
6948;DHT22;3513;47.664;9.162;2024-01-15T07:15:58;0.90;94.90
6948;DHT22;3513;47.664;9.162;2024-01-15T07:18:24;0.90;94.90
6948;DHT22;3513;47.664;9.162;2024-01-15T07:20:50;0.90;94.90
6948;DHT22;3513;47.664;9.162;2024-01-15T07:23:16;0.90;95.10
6948;DHT22;3513;47.664;9.162;2024-01-15T07:25:42;1.50;95.20
6948;DHT22;3513;47.664;9.162;2024-01-15T07:28:08;1.00;95.10
6948;DHT22;3513;47.664;9.162;2024-01-15T07:30:34;1.00;94.70
6948;DHT22;3513;47.664;9.162;2024-01-15T07:33:00;1.00;94.60
6948;DHT22;3513;47.664;9.162;2024-01-15T07:35:26;1.00;94.80
6948;DHT22;3513;47.664;9.162;2024-01-15T07:37:51;1.00;94.60
6948;DHT22;3513;47.664;9.162;2024-01-15T07:40:17;0.90;94.70
6948;DHT22;3513;47.664;9.162;2024-01-15T07:42:42;0.90;94.70
6948;DHT22;3513;47.664;9.162;2024-01-15T07:45:09;1.00;95.00
6948;DHT22;3513;47.664;9.162;2024-01-15T07:47:35;1.00;95.20
6948;DHT22;3513;47.664;9.162;2024-01-15T07:50:01;1.00;95.30
6948;DHT22;3513;47.664;9.162;2024-01-15T07:52:27;1.10;94.60
6948;DHT22;3513;47.664;9.162;2024-01-15T07:54:52;1.20;94.70
6948;DHT22;3513;47.664;9.162;2024-01-15T07:57:18;1.10;94.70
6948;DHT22;3513;47.664;9.162;2024-01-15T07:59:43;1.10;94.60
6948;DHT22;3513;47.664;9.162;2024-01-15T08:02:09;1.10;94.60
6948;DHT22;3513;47.664;9.162;2024-01-15T08:04:37;1.10;94.60
6948;DHT22;3513;47.664;9.162;2024-01-15T08:07:02;1.10;94.70
6948;DHT22;3513;47.664;9.162;2024-01-15T08:09:28;1.10;94.60
6948;DHT22;3513;47.664;9.162;2024-01-15T08:11:54;1.10;94.70
6948;DHT22;3513;47.664;9.162;2024-01-15T08:14:20;1.10;94.90
6948;DHT22;3513;47.664;9.162;2024-01-15T08:16:46;1.10;95.00
6948;DHT22;3513;47.664;9.162;2024-01-15T08:19:11;1.10;95.00
6948;DHT22;3513;47.664;9.162;2024-01-15T08:21:37;1.10;95.20
6948;DHT22;3513;47.664;9.162;2024-01-15T08:24:03;1.10;95.20
6948;DHT22;3513;47.664;9.162;2024-01-15T08:26:29;1.10;94.90
6948;DHT22;3513;47.664;9.162;2024-01-15T08:28:55;1.10;95.10
6948;DHT22;3513;47.664;9.162;2024-01-15T08:31:20;1.20;95.20
6948;DHT22;3513;47.664;9.162;2024-01-15T08:33:46;1.20;95.00
6948;DHT22;3513;47.664;9.162;2024-01-15T08:36:12;1.10;94.90
6948;DHT22;3513;47.664;9.162;2024-01-15T08:38:37;1.10;94.90
6948;DHT22;3513;47.664;9.162;2024-01-15T08:41:03;1.10;94.90
6948;DHT22;3513;47.664;9.162;2024-01-15T08:43:29;1.10;94.80
6948;DHT22;3513;47.664;9.162;2024-01-15T08:45:56;1.10;94.80
6948;DHT22;3513;47.664;9.162;2024-01-15T08:48:22;1.10;94.90
6948;DHT22;3513;47.664;9.162;2024-01-15T08:50:48;1.10;94.80
6948;DHT22;3513;47.664;9.162;2024-01-15T08:53:14;1.10;94.90
6948;DHT22;3513;47.664;9.162;2024-01-15T08:55:40;1.10;95.00
6948;DHT22;3513;47.664;9.162;2024-01-15T08:58:07;1.20;95.20
6948;DHT22;3513;47.664;9.162;2024-01-15T09:00:33;1.20;94.80
6948;DHT22;3513;47.664;9.162;2024-01-15T09:02:59;1.20;94.70
6948;DHT22;3513;47.664;9.162;2024-01-15T09:05:25;1.20;94.80
6948;DHT22;3513;47.664;9.162;2024-01-15T09:07:50;1.20;94.80
6948;DHT22;3513;47.664;9.162;2024-01-15T09:10:18;1.20;94.80
6948;DHT22;3513;47.664;9.162;2024-01-15T09:12:43;1.20;94.60
6948;DHT22;3513;47.664;9.162;2024-01-15T09:15:09;1.20;94.80
6948;DHT22;3513;47.664;9.162;2024-01-15T09:17:34;1.20;94.50
6948;DHT22;3513;47.664;9.162;2024-01-15T09:20:00;1.10;94.70
6948;DHT22;3513;47.664;9.162;2024-01-15T09:22:26;1.10;94.50
6948;DHT22;3513;47.664;9.162;2024-01-15T09:24:52;1.10;94.40
6948;DHT22;3513;47.664;9.162;2024-01-15T09:27:18;1.10;94.60
6948;DHT22;3513;47.664;9.162;2024-01-15T09:29:43;1.20;94.60
6948;DHT22;3513;47.664;9.162;2024-01-15T09:32:11;1.20;94.90
6948;DHT22;3513;47.664;9.162;2024-01-15T09:34:37;1.20;94.60
6948;DHT22;3513;47.664;9.162;2024-01-15T09:37:03;1.20;94.60
6948;DHT22;3513;47.664;9.162;2024-01-15T09:39:29;1.30;94.60
6948;DHT22;3513;47.664;9.162;2024-01-15T09:41:56;1.30;94.50
6948;DHT22;3513;47.664;9.162;2024-01-15T09:44:23;1.40;94.70
6948;DHT22;3513;47.664;9.162;2024-01-15T09:46:49;1.40;94.50
6948;DHT22;3513;47.664;9.162;2024-01-15T09:49:18;1.40;94.30
6948;DHT22;3513;47.664;9.162;2024-01-15T09:51:44;1.40;94.70
6948;DHT22;3513;47.664;9.162;2024-01-15T09:54:10;1.40;94.20
6948;DHT22;3513;47.664;9.162;2024-01-15T09:56:36;1.40;94.10
6948;DHT22;3513;47.664;9.162;2024-01-15T09:59:02;1.40;94.30
6948;DHT22;3513;47.664;9.162;2024-01-15T10:01:31;1.50;94.20
6948;DHT22;3513;47.664;9.162;2024-01-15T10:03:56;1.40;94.00
6948;DHT22;3513;47.664;9.162;2024-01-15T10:06:23;1.40;94.00
6948;DHT22;3513;47.664;9.162;2024-01-15T10:08:50;1.40;93.80
6948;DHT22;3513;47.664;9.162;2024-01-15T10:11:16;1.40;93.60
6948;DHT22;3513;47.664;9.162;2024-01-15T10:13:44;1.40;93.60
6948;DHT22;3513;47.664;9.162;2024-01-15T10:16:10;1.30;93.60
6948;DHT22;3513;47.664;9.162;2024-01-15T10:18:36;1.30;93.80
6948;DHT22;3513;47.664;9.162;2024-01-15T10:21:05;1.40;94.00
6948;DHT22;3513;47.664;9.162;2024-01-15T10:23:32;1.30;93.80
6948;DHT22;3513;47.664;9.162;2024-01-15T10:25:57;1.40;94.30
6948;DHT22;3513;47.664;9.162;2024-01-15T10:28:26;1.40;94.10
6948;DHT22;3513;47.664;9.162;2024-01-15T10:30:59;1.40;93.40
6948;DHT22;3513;47.664;9.162;2024-01-15T10:33:25;1.50;93.90
6948;DHT22;3513;47.664;9.162;2024-01-15T10:35:53;1.40;93.90
6948;DHT22;3513;47.664;9.162;2024-01-15T10:38:20;1.50;93.70
6948;DHT22;3513;47.664;9.162;2024-01-15T10:40:48;1.50;93.70
6948;DHT22;3513;47.664;9.162;2024-01-15T10:43:16;1.60;93.50
6948;DHT22;3513;47.664;9.162;2024-01-15T10:45:46;1.60;93.20
6948;DHT22;3513;47.664;9.162;2024-01-15T10:48:13;1.60;93.00
6948;DHT22;3513;47.664;9.162;2024-01-15T10:50:38;1.60;93.40
6948;DHT22;3513;47.664;9.162;2024-01-15T10:53:04;1.70;92.80
6948;DHT22;3513;47.664;9.162;2024-01-15T10:55:31;1.70;92.60
6948;DHT22;3513;47.664;9.162;2024-01-15T10:57:58;1.70;92.40
6948;DHT22;3513;47.664;9.162;2024-01-15T11:00:24;1.60;92.70
6948;DHT22;3513;47.664;9.162;2024-01-15T11:02:51;1.90;93.50
6948;DHT22;3513;47.664;9.162;2024-01-15T11:05:18;1.70;93.80
6948;DHT22;3513;47.664;9.162;2024-01-15T11:07:50;1.80;93.70
6948;DHT22;3513;47.664;9.162;2024-01-15T11:10:39;1.90;93.60
6948;DHT22;3513;47.664;9.162;2024-01-15T11:13:21;1.90;92.80
6948;DHT22;3513;47.664;9.162;2024-01-15T11:16:04;2.00;92.80
6948;DHT22;3513;47.664;9.162;2024-01-15T11:18:32;1.90;93.10
6948;DHT22;3513;47.664;9.162;2024-01-15T11:23:45;2.00;92.50
6948;DHT22;3513;47.664;9.162;2024-01-15T11:26:33;1.90;92.50
6948;DHT22;3513;47.664;9.162;2024-01-15T11:29:01;1.90;92.80
6948;DHT22;3513;47.664;9.162;2024-01-15T11:34:06;1.70;91.60
6948;DHT22;3513;47.664;9.162;2024-01-15T11:41:54;1.80;92.30
6948;DHT22;3513;47.664;9.162;2024-01-15T11:44:20;1.80;92.00
6948;DHT22;3513;47.664;9.162;2024-01-15T11:47:03;1.90;92.10
6948;DHT22;3513;47.664;9.162;2024-01-15T11:52:20;2.00;91.70
6948;DHT22;3513;47.664;9.162;2024-01-15T11:55:01;2.10;91.80
6948;DHT22;3513;47.664;9.162;2024-01-15T11:57:47;2.20;91.70
6948;DHT22;3513;47.664;9.162;2024-01-15T12:00:15;2.30;90.70
6948;DHT22;3513;47.664;9.162;2024-01-15T12:02:45;2.40;90.80
6948;DHT22;3513;47.664;9.162;2024-01-15T12:05:15;2.20;89.60
6948;DHT22;3513;47.664;9.162;2024-01-15T12:07:42;2.20;90.00
6948;DHT22;3513;47.664;9.162;2024-01-15T12:10:13;2.20;89.90
6948;DHT22;3513;47.664;9.162;2024-01-15T12:13:01;2.30;90.10
6948;DHT22;3513;47.664;9.162;2024-01-15T12:15:29;2.40;90.10
6948;DHT22;3513;47.664;9.162;2024-01-15T12:17:59;2.50;89.30
6948;DHT22;3513;47.664;9.162;2024-01-15T12:20:28;2.40;89.10
6948;DHT22;3513;47.664;9.162;2024-01-15T12:22:55;3.20;90.00
6948;DHT22;3513;47.664;9.162;2024-01-15T12:25:22;2.50;89.10
6948;DHT22;3513;47.664;9.162;2024-01-15T12:27:48;3.40;89.00
6948;DHT22;3513;47.664;9.162;2024-01-15T12:30:14;2.50;86.90
6948;DHT22;3513;47.664;9.162;2024-01-15T12:32:43;2.50;87.40
6948;DHT22;3513;47.664;9.162;2024-01-15T12:35:13;2.50;87.40
6948;DHT22;3513;47.664;9.162;2024-01-15T12:37:43;2.70;86.40
6948;DHT22;3513;47.664;9.162;2024-01-15T12:40:10;2.90;86.00
6948;DHT22;3513;47.664;9.162;2024-01-15T12:42:45;3.00;85.90
6948;DHT22;3513;47.664;9.162;2024-01-15T12:45:12;3.10;84.50
6948;DHT22;3513;47.664;9.162;2024-01-15T12:47:38;3.20;84.80
6948;DHT22;3513;47.664;9.162;2024-01-15T12:50:09;3.20;83.20
6948;DHT22;3513;47.664;9.162;2024-01-15T12:52:35;3.00;83.20
6948;DHT22;3513;47.664;9.162;2024-01-15T12:55:06;2.90;82.20
6948;DHT22;3513;47.664;9.162;2024-01-15T12:57:32;2.80;83.50
6948;DHT22;3513;47.664;9.162;2024-01-15T12:59:58;2.80;84.60
6948;DHT22;3513;47.664;9.162;2024-01-15T13:02:23;2.80;84.70
6948;DHT22;3513;47.664;9.162;2024-01-15T13:04:49;2.70;85.10
6948;DHT22;3513;47.664;9.162;2024-01-15T13:07:15;2.70;84.70
6948;DHT22;3513;47.664;9.162;2024-01-15T13:09:40;2.80;85.20
6948;DHT22;3513;47.664;9.162;2024-01-15T13:12:06;2.90;85.50
6948;DHT22;3513;47.664;9.162;2024-01-15T13:14:32;3.10;85.00
6948;DHT22;3513;47.664;9.162;2024-01-15T13:16:58;3.30;84.40
6948;DHT22;3513;47.664;9.162;2024-01-15T13:19:24;3.30;83.30
6948;DHT22;3513;47.664;9.162;2024-01-15T13:21:50;3.30;82.60
6948;DHT22;3513;47.664;9.162;2024-01-15T13:24:21;3.30;82.70
6948;DHT22;3513;47.664;9.162;2024-01-15T13:26:46;3.20;82.30
6948;DHT22;3513;47.664;9.162;2024-01-15T13:29:12;3.10;82.00
6948;DHT22;3513;47.664;9.162;2024-01-15T13:31:38;3.00;82.30
6948;DHT22;3513;47.664;9.162;2024-01-15T13:34:04;3.00;82.30
6948;DHT22;3513;47.664;9.162;2024-01-15T13:36:29;2.90;83.10
6948;DHT22;3513;47.664;9.162;2024-01-15T13:38:55;2.90;83.30
6948;DHT22;3513;47.664;9.162;2024-01-15T13:41:21;3.00;82.90
6948;DHT22;3513;47.664;9.162;2024-01-15T13:43:55;3.20;81.50
6948;DHT22;3513;47.664;9.162;2024-01-15T13:46:24;3.20;81.50
6948;DHT22;3513;47.664;9.162;2024-01-15T13:48:52;3.20;80.40
6948;DHT22;3513;47.664;9.162;2024-01-15T13:51:17;3.20;80.60
6948;DHT22;3513;47.664;9.162;2024-01-15T13:53:43;3.20;81.00
6948;DHT22;3513;47.664;9.162;2024-01-15T13:56:08;3.30;81.40
6948;DHT22;3513;47.664;9.162;2024-01-15T13:58:36;3.30;80.70
6948;DHT22;3513;47.664;9.162;2024-01-15T14:01:01;3.30;80.80
6948;DHT22;3513;47.664;9.162;2024-01-15T14:03:29;3.30;80.40
6948;DHT22;3513;47.664;9.162;2024-01-15T14:05:55;3.30;80.90
6948;DHT22;3513;47.664;9.162;2024-01-15T14:08:20;3.30;81.00
6948;DHT22;3513;47.664;9.162;2024-01-15T14:10:46;3.30;81.20
6948;DHT22;3513;47.664;9.162;2024-01-15T14:13:12;3.30;81.40
6948;DHT22;3513;47.664;9.162;2024-01-15T14:15:37;3.30;81.00
6948;DHT22;3513;47.664;9.162;2024-01-15T14:18:03;3.30;81.10
6948;DHT22;3513;47.664;9.162;2024-01-15T14:20:29;3.30;81.50
6948;DHT22;3513;47.664;9.162;2024-01-15T14:22:54;3.30;81.80
6948;DHT22;3513;47.664;9.162;2024-01-15T14:25:23;3.40;81.90
6948;DHT22;3513;47.664;9.162;2024-01-15T14:27:50;3.30;82.00
6948;DHT22;3513;47.664;9.162;2024-01-15T14:30:16;3.30;82.20
6948;DHT22;3513;47.664;9.162;2024-01-15T14:32:42;3.20;82.50
6948;DHT22;3513;47.664;9.162;2024-01-15T14:35:08;3.20;83.70
6948;DHT22;3513;47.664;9.162;2024-01-15T14:37:36;3.20;84.40
6948;DHT22;3513;47.664;9.162;2024-01-15T14:40:02;3.20;84.70
6948;DHT22;3513;47.664;9.162;2024-01-15T14:42:30;3.10;85.20
6948;DHT22;3513;47.664;9.162;2024-01-15T14:44:56;3.10;86.20
6948;DHT22;3513;47.664;9.162;2024-01-15T14:47:22;3.00;87.20
6948;DHT22;3513;47.664;9.162;2024-01-15T14:49:49;2.90;88.00
6948;DHT22;3513;47.664;9.162;2024-01-15T14:52:15;2.90;89.20
6948;DHT22;3513;47.664;9.162;2024-01-15T14:54:41;2.90;89.90
6948;DHT22;3513;47.664;9.162;2024-01-15T14:57:07;2.80;90.20
6948;DHT22;3513;47.664;9.162;2024-01-15T14:59:32;2.90;90.60
6948;DHT22;3513;47.664;9.162;2024-01-15T15:01:58;2.80;90.70
6948;DHT22;3513;47.664;9.162;2024-01-15T15:04:24;2.80;91.00
6948;DHT22;3513;47.664;9.162;2024-01-15T15:06:49;2.80;91.10
6948;DHT22;3513;47.664;9.162;2024-01-15T15:09:15;2.70;90.80
6948;DHT22;3513;47.664;9.162;2024-01-15T15:11:41;2.70;91.00
6948;DHT22;3513;47.664;9.162;2024-01-15T15:14:06;2.70;90.90
6948;DHT22;3513;47.664;9.162;2024-01-15T15:16:32;2.60;91.10
6948;DHT22;3513;47.664;9.162;2024-01-15T15:18:58;2.60;91.30
6948;DHT22;3513;47.664;9.162;2024-01-15T15:21:23;2.50;91.60
6948;DHT22;3513;47.664;9.162;2024-01-15T15:23:49;2.50;91.90
6948;DHT22;3513;47.664;9.162;2024-01-15T15:26:15;2.40;92.00
6948;DHT22;3513;47.664;9.162;2024-01-15T15:28:40;2.40;91.90
6948;DHT22;3513;47.664;9.162;2024-01-15T15:31:06;2.40;92.20
6948;DHT22;3513;47.664;9.162;2024-01-15T15:33:37;2.40;92.30
6948;DHT22;3513;47.664;9.162;2024-01-15T15:36:03;2.40;92.50
6948;DHT22;3513;47.664;9.162;2024-01-15T15:38:31;2.30;92.60
6948;DHT22;3513;47.664;9.162;2024-01-15T15:40:56;2.30;92.60
6948;DHT22;3513;47.664;9.162;2024-01-15T15:43:22;2.30;92.40
6948;DHT22;3513;47.664;9.162;2024-01-15T15:45:48;2.30;92.40
6948;DHT22;3513;47.664;9.162;2024-01-15T15:48:13;2.30;92.00
6948;DHT22;3513;47.664;9.162;2024-01-15T15:50:39;2.20;91.90
6948;DHT22;3513;47.664;9.162;2024-01-15T15:53:04;2.20;92.00
6948;DHT22;3513;47.664;9.162;2024-01-15T15:55:30;2.30;91.90
6948;DHT22;3513;47.664;9.162;2024-01-15T15:57:57;2.30;91.90
6948;DHT22;3513;47.664;9.162;2024-01-15T16:00:22;2.20;91.80
6948;DHT22;3513;47.664;9.162;2024-01-15T16:02:48;2.20;91.90
6948;DHT22;3513;47.664;9.162;2024-01-15T16:05:13;2.20;91.80
6948;DHT22;3513;47.664;9.162;2024-01-15T16:07:39;2.10;90.90
6948;DHT22;3513;47.664;9.162;2024-01-15T16:10:05;2.20;90.80
6948;DHT22;3513;47.664;9.162;2024-01-15T16:12:31;2.20;90.50
6948;DHT22;3513;47.664;9.162;2024-01-15T16:14:57;2.20;90.10
6948;DHT22;3513;47.664;9.162;2024-01-15T16:17:23;2.10;90.10
6948;DHT22;3513;47.664;9.162;2024-01-15T16:19:48;2.10;90.10
6948;DHT22;3513;47.664;9.162;2024-01-15T16:22:14;2.10;90.20
6948;DHT22;3513;47.664;9.162;2024-01-15T16:24:39;2.10;90.00